sensor_id;sensor_type;location;lat;lon;timestamp;P1;durP1;ratioP1;P2;durP2;ratioP2
32946;SDS011;54465;51.230;22.504;2024-02-21T00:03:57;10.45;;;6.85;;
32946;SDS011;54465;51.230;22.504;2024-02-21T00:08:58;8.52;;;6.07;;
32946;SDS011;54465;51.230;22.504;2024-02-21T00:13:58;7.57;;;5.95;;
32946;SDS011;54465;51.230;22.504;2024-02-21T00:18:59;10.55;;;5.95;;
32946;SDS011;54465;51.230;22.504;2024-02-21T00:23:59;9.73;;;6.10;;
32946;SDS011;54465;51.230;22.504;2024-02-21T00:29:00;7.38;;;4.93;;
32946;SDS011;54465;51.230;22.504;2024-02-21T00:34:00;7.65;;;4.93;;
32946;SDS011;54465;51.230;22.504;2024-02-21T00:39:01;7.80;;;4.95;;
32946;SDS011;54465;51.230;22.504;2024-02-21T00:44:01;7.63;;;4.35;;
32946;SDS011;54465;51.230;22.504;2024-02-21T00:49:02;6.47;;;4.20;;
32946;SDS011;54465;51.230;22.504;2024-02-21T00:54:02;6.40;;;4.10;;
32946;SDS011;54465;51.230;22.504;2024-02-21T00:59:03;5.93;;;3.92;;
32946;SDS011;54465;51.230;22.504;2024-02-21T01:04:04;5.85;;;3.20;;
32946;SDS011;54465;51.230;22.504;2024-02-21T01:09:04;4.35;;;3.63;;
32946;SDS011;54465;51.230;22.504;2024-02-21T01:14:05;4.88;;;3.10;;
32946;SDS011;54465;51.230;22.504;2024-02-21T01:19:05;7.13;;;3.85;;
32946;SDS011;54465;51.230;22.504;2024-02-21T01:24:06;5.20;;;3.83;;
32946;SDS011;54465;51.230;22.504;2024-02-21T01:29:06;6.68;;;3.45;;
32946;SDS011;54465;51.230;22.504;2024-02-21T01:34:07;4.85;;;3.17;;
32946;SDS011;54465;51.230;22.504;2024-02-21T01:39:08;4.22;;;3.03;;
32946;SDS011;54465;51.230;22.504;2024-02-21T01:44:09;5.65;;;3.10;;
32946;SDS011;54465;51.230;22.504;2024-02-21T01:49:09;3.72;;;2.30;;
32946;SDS011;54465;51.230;22.504;2024-02-21T01:54:10;6.40;;;2.75;;
32946;SDS011;54465;51.230;22.504;2024-02-21T01:59:11;4.60;;;2.55;;
32946;SDS011;54465;51.230;22.504;2024-02-21T02:04:12;3.78;;;1.80;;
32946;SDS011;54465;51.230;22.504;2024-02-21T02:09:13;5.00;;;1.77;;
32946;SDS011;54465;51.230;22.504;2024-02-21T02:14:14;4.28;;;1.70;;
32946;SDS011;54465;51.230;22.504;2024-02-21T02:19:14;3.03;;;1.90;;
32946;SDS011;54465;51.230;22.504;2024-02-21T02:24:16;2.55;;;1.70;;
32946;SDS011;54465;51.230;22.504;2024-02-21T02:29:16;4.22;;;1.30;;
32946;SDS011;54465;51.230;22.504;2024-02-21T02:34:17;4.80;;;1.83;;
32946;SDS011;54465;51.230;22.504;2024-02-21T02:39:18;2.40;;;1.05;;
32946;SDS011;54465;51.230;22.504;2024-02-21T02:44:18;3.28;;;1.40;;
32946;SDS011;54465;51.230;22.504;2024-02-21T02:49:19;5.45;;;1.70;;
32946;SDS011;54465;51.230;22.504;2024-02-21T02:54:19;3.63;;;1.38;;
32946;SDS011;54465;51.230;22.504;2024-02-21T02:59:20;3.17;;;1.02;;
32946;SDS011;54465;51.230;22.504;2024-02-21T03:04:20;6.78;;;1.70;;
32946;SDS011;54465;51.230;22.504;2024-02-21T03:09:21;4.38;;;1.73;;
32946;SDS011;54465;51.230;22.504;2024-02-21T03:14:21;6.05;;;1.88;;
32946;SDS011;54465;51.230;22.504;2024-02-21T03:19:22;4.07;;;1.90;;
32946;SDS011;54465;51.230;22.504;2024-02-21T03:24:22;7.03;;;1.50;;
32946;SDS011;54465;51.230;22.504;2024-02-21T03:29:23;3.42;;;1.60;;
32946;SDS011;54465;51.230;22.504;2024-02-21T03:34:24;5.00;;;2.03;;
32946;SDS011;54465;51.230;22.504;2024-02-21T03:39:24;3.80;;;1.30;;
32946;SDS011;54465;51.230;22.504;2024-02-21T03:44:24;4.90;;;2.03;;
32946;SDS011;54465;51.230;22.504;2024-02-21T03:49:25;4.82;;;1.58;;
32946;SDS011;54465;51.230;22.504;2024-02-21T03:54:26;5.50;;;2.00;;
32946;SDS011;54465;51.230;22.504;2024-02-21T03:59:26;5.18;;;1.83;;
32946;SDS011;54465;51.230;22.504;2024-02-21T04:04:27;4.82;;;1.60;;
32946;SDS011;54465;51.230;22.504;2024-02-21T04:09:27;6.68;;;2.00;;
32946;SDS011;54465;51.230;22.504;2024-02-21T04:14:28;6.00;;;1.90;;
32946;SDS011;54465;51.230;22.504;2024-02-21T04:19:29;3.88;;;2.35;;
32946;SDS011;54465;51.230;22.504;2024-02-21T04:24:31;7.78;;;2.92;;
32946;SDS011;54465;51.230;22.504;2024-02-21T04:29:31;7.57;;;2.35;;
32946;SDS011;54465;51.230;22.504;2024-02-21T04:34:32;6.97;;;3.00;;
32946;SDS011;54465;51.230;22.504;2024-02-21T04:39:33;9.05;;;3.75;;
32946;SDS011;54465;51.230;22.504;2024-02-21T04:44:33;9.48;;;3.25;;
32946;SDS011;54465;51.230;22.504;2024-02-21T04:49:34;5.63;;;3.67;;
32946;SDS011;54465;51.230;22.504;2024-02-21T04:54:35;8.23;;;2.63;;
32946;SDS011;54465;51.230;22.504;2024-02-21T04:59:35;5.40;;;2.67;;
32946;SDS011;54465;51.230;22.504;2024-02-21T05:04:36;4.82;;;2.53;;
32946;SDS011;54465;51.230;22.504;2024-02-21T05:09:38;5.47;;;2.92;;
32946;SDS011;54465;51.230;22.504;2024-02-21T05:14:38;8.50;;;2.60;;
32946;SDS011;54465;51.230;22.504;2024-02-21T05:19:39;5.13;;;2.60;;
32946;SDS011;54465;51.230;22.504;2024-02-21T05:24:39;7.15;;;2.58;;
32946;SDS011;54465;51.230;22.504;2024-02-21T05:29:40;6.05;;;2.85;;
32946;SDS011;54465;51.230;22.504;2024-02-21T05:34:41;10.68;;;3.60;;
32946;SDS011;54465;51.230;22.504;2024-02-21T05:39:41;7.13;;;3.38;;
32946;SDS011;54465;51.230;22.504;2024-02-21T05:44:42;6.07;;;2.97;;
32946;SDS011;54465;51.230;22.504;2024-02-21T05:49:42;7.82;;;2.83;;
32946;SDS011;54465;51.230;22.504;2024-02-21T05:54:43;7.38;;;3.33;;
32946;SDS011;54465;51.230;22.504;2024-02-21T05:59:43;8.38;;;3.30;;
32946;SDS011;54465;51.230;22.504;2024-02-21T06:04:44;6.68;;;3.38;;
32946;SDS011;54465;51.230;22.504;2024-02-21T06:09:46;9.57;;;3.67;;
32946;SDS011;54465;51.230;22.504;2024-02-21T06:14:47;10.45;;;4.55;;
32946;SDS011;54465;51.230;22.504;2024-02-21T06:19:47;8.65;;;4.30;;
32946;SDS011;54465;51.230;22.504;2024-02-21T06:24:48;8.73;;;3.90;;
32946;SDS011;54465;51.230;22.504;2024-02-21T06:29:48;8.40;;;3.65;;
32946;SDS011;54465;51.230;22.504;2024-02-21T06:34:49;7.38;;;4.00;;
32946;SDS011;54465;51.230;22.504;2024-02-21T06:39:49;6.53;;;3.38;;
32946;SDS011;54465;51.230;22.504;2024-02-21T06:44:50;8.40;;;4.05;;
32946;SDS011;54465;51.230;22.504;2024-02-21T06:49:51;8.90;;;4.60;;
32946;SDS011;54465;51.230;22.504;2024-02-21T06:54:52;9.15;;;4.47;;
32946;SDS011;54465;51.230;22.504;2024-02-21T06:59:52;10.57;;;3.88;;
32946;SDS011;54465;51.230;22.504;2024-02-21T07:04:53;8.68;;;4.63;;
32946;SDS011;54465;51.230;22.504;2024-02-21T07:09:53;12.05;;;4.93;;
32946;SDS011;54465;51.230;22.504;2024-02-21T07:14:54;11.77;;;4.50;;
32946;SDS011;54465;51.230;22.504;2024-02-21T07:19:55;10.52;;;4.60;;
32946;SDS011;54465;51.230;22.504;2024-02-21T07:24:57;13.85;;;5.88;;
32946;SDS011;54465;51.230;22.504;2024-02-21T07:29:57;10.25;;;4.82;;
32946;SDS011;54465;51.230;22.504;2024-02-21T07:34:58;8.05;;;4.10;;
32946;SDS011;54465;51.230;22.504;2024-02-21T07:39:58;8.95;;;5.28;;
32946;SDS011;54465;51.230;22.504;2024-02-21T07:44:59;12.23;;;5.03;;
32946;SDS011;54465;51.230;22.504;2024-02-21T07:49:59;10.25;;;4.85;;
32946;SDS011;54465;51.230;22.504;2024-02-21T07:55:01;10.45;;;5.22;;
32946;SDS011;54465;51.230;22.504;2024-02-21T08:00:03;21.95;;;8.00;;
32946;SDS011;54465;51.230;22.504;2024-02-21T08:05:15;9.45;;;4.65;;
32946;SDS011;54465;51.230;22.504;2024-02-21T08:10:16;12.40;;;6.32;;
32946;SDS011;54465;51.230;22.504;2024-02-21T08:15:16;14.65;;;5.22;;
32946;SDS011;54465;51.230;22.504;2024-02-21T08:20:17;11.75;;;5.15;;
32946;SDS011;54465;51.230;22.504;2024-02-21T08:25:17;14.27;;;5.38;;
32946;SDS011;54465;51.230;22.504;2024-02-21T08:30:18;10.57;;;5.35;;
32946;SDS011;54465;51.230;22.504;2024-02-21T08:35:18;11.63;;;6.00;;
32946;SDS011;54465;51.230;22.504;2024-02-21T08:40:19;14.82;;;5.72;;
32946;SDS011;54465;51.230;22.504;2024-02-21T08:45:21;13.82;;;5.22;;
32946;SDS011;54465;51.230;22.504;2024-02-21T08:50:22;9.25;;;5.20;;
32946;SDS011;54465;51.230;22.504;2024-02-21T08:55:22;12.95;;;5.03;;
32946;SDS011;54465;51.230;22.504;2024-02-21T09:00:24;11.27;;;5.13;;
32946;SDS011;54465;51.230;22.504;2024-02-21T09:05:27;10.98;;;5.63;;
32946;SDS011;54465;51.230;22.504;2024-02-21T09:10:27;8.95;;;4.47;;
32946;SDS011;54465;51.230;22.504;2024-02-21T09:15:28;8.48;;;4.53;;
32946;SDS011;54465;51.230;22.504;2024-02-21T09:20:28;10.40;;;5.82;;
32946;SDS011;54465;51.230;22.504;2024-02-21T09:25:29;8.90;;;4.53;;
32946;SDS011;54465;51.230;22.504;2024-02-21T09:30:30;11.68;;;4.50;;
32946;SDS011;54465;51.230;22.504;2024-02-21T09:35:31;10.45;;;4.95;;
32946;SDS011;54465;51.230;22.504;2024-02-21T09:40:33;10.75;;;4.65;;
32946;SDS011;54465;51.230;22.504;2024-02-21T09:45:38;12.93;;;4.55;;
32946;SDS011;54465;51.230;22.504;2024-02-21T09:50:39;9.77;;;4.15;;
32946;SDS011;54465;51.230;22.504;2024-02-21T10:02:31;6.80;;;4.32;;
32946;SDS011;54465;51.230;22.504;2024-02-21T10:07:31;9.52;;;5.20;;
32946;SDS011;54465;51.230;22.504;2024-02-21T10:12:32;12.80;;;5.70;;
32946;SDS011;54465;51.230;22.504;2024-02-21T10:17:33;11.88;;;5.22;;
32946;SDS011;54465;51.230;22.504;2024-02-21T10:22:34;9.95;;;4.80;;
32946;SDS011;54465;51.230;22.504;2024-02-21T10:27:36;11.07;;;5.32;;
32946;SDS011;54465;51.230;22.504;2024-02-21T10:32:48;10.98;;;5.30;;
32946;SDS011;54465;51.230;22.504;2024-02-21T10:37:58;11.45;;;6.03;;
32946;SDS011;54465;51.230;22.504;2024-02-21T10:43:00;12.60;;;5.88;;
32946;SDS011;54465;51.230;22.504;2024-02-21T10:53:15;11.98;;;5.88;;
32946;SDS011;54465;51.230;22.504;2024-02-21T10:58:38;11.88;;;6.15;;
32946;SDS011;54465;51.230;22.504;2024-02-21T11:03:39;9.98;;;6.25;;
32946;SDS011;54465;51.230;22.504;2024-02-21T11:08:40;13.40;;;6.32;;
32946;SDS011;54465;51.230;22.504;2024-02-21T11:13:40;12.95;;;6.80;;
32946;SDS011;54465;51.230;22.504;2024-02-21T11:18:41;15.30;;;5.88;;
32946;SDS011;54465;51.230;22.504;2024-02-21T11:23:41;9.43;;;5.57;;
32946;SDS011;54465;51.230;22.504;2024-02-21T11:28:42;10.38;;;6.28;;
32946;SDS011;54465;51.230;22.504;2024-02-21T11:33:44;9.38;;;6.18;;
32946;SDS011;54465;51.230;22.504;2024-02-21T11:38:47;9.60;;;5.43;;
32946;SDS011;54465;51.230;22.504;2024-02-21T11:43:48;10.02;;;5.60;;
32946;SDS011;54465;51.230;22.504;2024-02-21T11:48:50;11.15;;;5.38;;
32946;SDS011;54465;51.230;22.504;2024-02-21T11:53:53;9.38;;;5.25;;
32946;SDS011;54465;51.230;22.504;2024-02-21T11:58:53;14.95;;;5.65;;
32946;SDS011;54465;51.230;22.504;2024-02-21T12:03:54;11.75;;;5.05;;
32946;SDS011;54465;51.230;22.504;2024-02-21T12:08:57;9.63;;;5.00;;
32946;SDS011;54465;51.230;22.504;2024-02-21T12:14:01;10.23;;;4.68;;
32946;SDS011;54465;51.230;22.504;2024-02-21T12:19:04;9.15;;;4.93;;
32946;SDS011;54465;51.230;22.504;2024-02-21T12:29:38;10.30;;;3.83;;
32946;SDS011;54465;51.230;22.504;2024-02-21T12:34:39;6.65;;;4.05;;
32946;SDS011;54465;51.230;22.504;2024-02-21T12:39:40;9.02;;;4.28;;
32946;SDS011;54465;51.230;22.504;2024-02-21T12:44:40;9.23;;;4.00;;
32946;SDS011;54465;51.230;22.504;2024-02-21T12:49:42;11.10;;;4.30;;
32946;SDS011;54465;51.230;22.504;2024-02-21T12:54:42;9.55;;;4.20;;
32946;SDS011;54465;51.230;22.504;2024-02-21T12:59:43;9.35;;;5.38;;
32946;SDS011;54465;51.230;22.504;2024-02-21T13:04:44;10.82;;;5.50;;
32946;SDS011;54465;51.230;22.504;2024-02-21T13:09:45;11.30;;;4.85;;
32946;SDS011;54465;51.230;22.504;2024-02-21T13:14:45;11.98;;;4.32;;
32946;SDS011;54465;51.230;22.504;2024-02-21T13:19:46;9.68;;;4.20;;
32946;SDS011;54465;51.230;22.504;2024-02-21T13:24:46;8.80;;;4.20;;
32946;SDS011;54465;51.230;22.504;2024-02-21T13:29:47;11.07;;;4.55;;
32946;SDS011;54465;51.230;22.504;2024-02-21T13:34:48;11.75;;;4.95;;
32946;SDS011;54465;51.230;22.504;2024-02-21T13:39:48;12.85;;;4.72;;
32946;SDS011;54465;51.230;22.504;2024-02-21T13:44:49;10.38;;;4.13;;
32946;SDS011;54465;51.230;22.504;2024-02-21T13:49:49;6.50;;;4.28;;
32946;SDS011;54465;51.230;22.504;2024-02-21T13:54:50;9.38;;;4.72;;
32946;SDS011;54465;51.230;22.504;2024-02-21T13:59:50;9.25;;;4.72;;
32946;SDS011;54465;51.230;22.504;2024-02-21T14:04:51;9.43;;;4.82;;
32946;SDS011;54465;51.230;22.504;2024-02-21T14:09:52;11.60;;;4.50;;
32946;SDS011;54465;51.230;22.504;2024-02-21T14:14:52;12.15;;;5.15;;
32946;SDS011;54465;51.230;22.504;2024-02-21T14:19:53;10.60;;;4.60;;
32946;SDS011;54465;51.230;22.504;2024-02-21T14:24:53;12.98;;;4.75;;
32946;SDS011;54465;51.230;22.504;2024-02-21T14:29:54;13.13;;;4.63;;
32946;SDS011;54465;51.230;22.504;2024-02-21T14:34:54;8.30;;;4.88;;
32946;SDS011;54465;51.230;22.504;2024-02-21T14:39:55;14.57;;;4.63;;
32946;SDS011;54465;51.230;22.504;2024-02-21T14:44:55;10.23;;;4.60;;
32946;SDS011;54465;51.230;22.504;2024-02-21T14:50:04;8.13;;;4.45;;
32946;SDS011;54465;51.230;22.504;2024-02-21T14:55:05;10.48;;;4.82;;
32946;SDS011;54465;51.230;22.504;2024-02-21T15:00:07;9.43;;;5.00;;
32946;SDS011;54465;51.230;22.504;2024-02-21T15:05:09;13.52;;;5.40;;
32946;SDS011;54465;51.230;22.504;2024-02-21T15:10:12;9.43;;;4.80;;
32946;SDS011;54465;51.230;22.504;2024-02-21T15:15:13;11.27;;;5.22;;
32946;SDS011;54465;51.230;22.504;2024-02-21T15:20:14;11.85;;;5.32;;
32946;SDS011;54465;51.230;22.504;2024-02-21T15:25:15;9.70;;;5.32;;
32946;SDS011;54465;51.230;22.504;2024-02-21T15:30:17;11.48;;;5.55;;
32946;SDS011;54465;51.230;22.504;2024-02-21T15:35:18;12.32;;;5.35;;
32946;SDS011;54465;51.230;22.504;2024-02-21T15:40:19;11.20;;;5.93;;
32946;SDS011;54465;51.230;22.504;2024-02-21T15:45:20;14.77;;;6.95;;
32946;SDS011;54465;51.230;22.504;2024-02-21T15:50:20;10.10;;;5.95;;
32946;SDS011;54465;51.230;22.504;2024-02-21T15:55:21;15.00;;;7.40;;
32946;SDS011;54465;51.230;22.504;2024-02-21T16:00:21;15.93;;;7.40;;
32946;SDS011;54465;51.230;22.504;2024-02-21T16:05:22;21.95;;;9.90;;
32946;SDS011;54465;51.230;22.504;2024-02-21T16:10:23;22.20;;;7.72;;
32946;SDS011;54465;51.230;22.504;2024-02-21T16:15:24;14.70;;;7.10;;
32946;SDS011;54465;51.230;22.504;2024-02-21T16:20:25;15.13;;;7.03;;
32946;SDS011;54465;51.230;22.504;2024-02-21T16:25:26;16.35;;;8.13;;
32946;SDS011;54465;51.230;22.504;2024-02-21T16:30:26;9.88;;;5.38;;
32946;SDS011;54465;51.230;22.504;2024-02-21T16:35:27;17.95;;;7.68;;
32946;SDS011;54465;51.230;22.504;2024-02-21T16:40:30;15.48;;;7.20;;
32946;SDS011;54465;51.230;22.504;2024-02-21T16:45:31;15.73;;;6.65;;
32946;SDS011;54465;51.230;22.504;2024-02-21T16:50:32;13.88;;;6.43;;
32946;SDS011;54465;51.230;22.504;2024-02-21T16:55:32;15.05;;;6.78;;
32946;SDS011;54465;51.230;22.504;2024-02-21T17:00:34;17.13;;;7.35;;
32946;SDS011;54465;51.230;22.504;2024-02-21T17:05:36;16.67;;;7.97;;
32946;SDS011;54465;51.230;22.504;2024-02-21T17:10:37;23.90;;;9.20;;
32946;SDS011;54465;51.230;22.504;2024-02-21T17:15:39;17.38;;;8.23;;
32946;SDS011;54465;51.230;22.504;2024-02-21T17:20:40;16.90;;;8.20;;
32946;SDS011;54465;51.230;22.504;2024-02-21T17:25:43;14.07;;;7.75;;
32946;SDS011;54465;51.230;22.504;2024-02-21T17:30:44;14.88;;;8.15;;
32946;SDS011;54465;51.230;22.504;2024-02-21T17:35:45;18.38;;;8.45;;
32946;SDS011;54465;51.230;22.504;2024-02-21T17:40:53;14.85;;;8.23;;
32946;SDS011;54465;51.230;22.504;2024-02-21T17:45:54;23.97;;;9.67;;
32946;SDS011;54465;51.230;22.504;2024-02-21T17:50:56;17.33;;;9.15;;
32946;SDS011;54465;51.230;22.504;2024-02-21T17:55:58;15.50;;;10.18;;
32946;SDS011;54465;51.230;22.504;2024-02-21T18:00:59;16.58;;;7.72;;
32946;SDS011;54465;51.230;22.504;2024-02-21T18:06:01;14.55;;;8.52;;
32946;SDS011;54465;51.230;22.504;2024-02-21T18:11:03;17.27;;;8.15;;
32946;SDS011;54465;51.230;22.504;2024-02-21T18:16:04;18.38;;;6.90;;
32946;SDS011;54465;51.230;22.504;2024-02-21T18:21:08;15.55;;;6.85;;
32946;SDS011;54465;51.230;22.504;2024-02-21T18:26:09;10.52;;;6.75;;
32946;SDS011;54465;51.230;22.504;2024-02-21T18:31:09;16.02;;;6.95;;
32946;SDS011;54465;51.230;22.504;2024-02-21T18:36:10;11.85;;;6.70;;
32946;SDS011;54465;51.230;22.504;2024-02-21T18:41:11;12.68;;;7.00;;
32946;SDS011;54465;51.230;22.504;2024-02-21T18:46:12;14.57;;;7.15;;
32946;SDS011;54465;51.230;22.504;2024-02-21T18:51:14;13.30;;;7.32;;
32946;SDS011;54465;51.230;22.504;2024-02-21T18:56:15;15.43;;;6.47;;
32946;SDS011;54465;51.230;22.504;2024-02-21T19:01:16;14.05;;;7.28;;
32946;SDS011;54465;51.230;22.504;2024-02-21T19:06:20;14.50;;;7.15;;
32946;SDS011;54465;51.230;22.504;2024-02-21T19:11:21;12.70;;;6.97;;
32946;SDS011;54465;51.230;22.504;2024-02-21T19:16:21;12.85;;;6.28;;
32946;SDS011;54465;51.230;22.504;2024-02-21T19:21:22;9.82;;;6.38;;
32946;SDS011;54465;51.230;22.504;2024-02-21T19:26:23;10.38;;;5.70;;
32946;SDS011;54465;51.230;22.504;2024-02-21T19:31:23;7.40;;;5.18;;
32946;SDS011;54465;51.230;22.504;2024-02-21T19:36:24;8.60;;;4.53;;
32946;SDS011;54465;51.230;22.504;2024-02-21T19:41:26;15.43;;;6.53;;
32946;SDS011;54465;51.230;22.504;2024-02-21T19:46:26;9.55;;;6.40;;
32946;SDS011;54465;51.230;22.504;2024-02-21T19:51:27;10.68;;;5.65;;
32946;SDS011;54465;51.230;22.504;2024-02-21T19:56:28;9.40;;;6.15;;
32946;SDS011;54465;51.230;22.504;2024-02-21T20:01:28;9.82;;;6.05;;
32946;SDS011;54465;51.230;22.504;2024-02-21T20:06:30;8.50;;;5.68;;
32946;SDS011;54465;51.230;22.504;2024-02-21T20:11:31;8.88;;;4.93;;
32946;SDS011;54465;51.230;22.504;2024-02-21T20:16:32;10.23;;;5.60;;
32946;SDS011;54465;51.230;22.504;2024-02-21T20:21:33;8.73;;;5.68;;
32946;SDS011;54465;51.230;22.504;2024-02-21T20:26:33;10.15;;;5.68;;
32946;SDS011;54465;51.230;22.504;2024-02-21T20:31:34;9.93;;;4.70;;
32946;SDS011;54465;51.230;22.504;2024-02-21T20:36:36;9.73;;;4.05;;
32946;SDS011;54465;51.230;22.504;2024-02-21T20:41:36;9.75;;;4.50;;
32946;SDS011;54465;51.230;22.504;2024-02-21T20:46:37;7.85;;;4.47;;
32946;SDS011;54465;51.230;22.504;2024-02-21T20:51:38;9.18;;;4.75;;
32946;SDS011;54465;51.230;22.504;2024-02-21T20:56:39;9.00;;;4.10;;
32946;SDS011;54465;51.230;22.504;2024-02-21T21:01:40;9.80;;;4.60;;
32946;SDS011;54465;51.230;22.504;2024-02-21T21:06:41;7.90;;;4.47;;
32946;SDS011;54465;51.230;22.504;2024-02-21T21:11:42;8.43;;;4.68;;
32946;SDS011;54465;51.230;22.504;2024-02-21T21:16:43;8.18;;;4.68;;
32946;SDS011;54465;51.230;22.504;2024-02-21T21:21:43;9.43;;;4.55;;
32946;SDS011;54465;51.230;22.504;2024-02-21T21:26:48;7.50;;;4.13;;
32946;SDS011;54465;51.230;22.504;2024-02-21T21:31:49;8.45;;;4.22;;
32946;SDS011;54465;51.230;22.504;2024-02-21T21:36:49;9.07;;;4.75;;
32946;SDS011;54465;51.230;22.504;2024-02-21T21:41:50;8.43;;;4.82;;
32946;SDS011;54465;51.230;22.504;2024-02-21T21:46:50;8.50;;;4.55;;
32946;SDS011;54465;51.230;22.504;2024-02-21T21:51:52;8.90;;;5.10;;
32946;SDS011;54465;51.230;22.504;2024-02-21T21:56:52;10.10;;;5.07;;
32946;SDS011;54465;51.230;22.504;2024-02-21T22:01:53;11.20;;;5.85;;
32946;SDS011;54465;51.230;22.504;2024-02-21T22:06:55;7.45;;;5.03;;
32946;SDS011;54465;51.230;22.504;2024-02-21T22:11:55;9.25;;;5.10;;
32946;SDS011;54465;51.230;22.504;2024-02-21T22:16:56;10.80;;;5.45;;
32946;SDS011;54465;51.230;22.504;2024-02-21T22:21:56;9.98;;;5.20;;
32946;SDS011;54465;51.230;22.504;2024-02-21T22:26:57;12.50;;;5.57;;
32946;SDS011;54465;51.230;22.504;2024-02-21T22:31:59;8.85;;;4.90;;
32946;SDS011;54465;51.230;22.504;2024-02-21T22:37:00;14.00;;;5.65;;
32946;SDS011;54465;51.230;22.504;2024-02-21T22:42:01;8.93;;;5.10;;
32946;SDS011;54465;51.230;22.504;2024-02-21T22:47:01;10.60;;;5.55;;
32946;SDS011;54465;51.230;22.504;2024-02-21T22:52:02;9.73;;;5.75;;
32946;SDS011;54465;51.230;22.504;2024-02-21T22:57:02;12.20;;;5.90;;
32946;SDS011;54465;51.230;22.504;2024-02-21T23:02:03;14.55;;;5.60;;
32946;SDS011;54465;51.230;22.504;2024-02-21T23:07:03;9.05;;;6.00;;
32946;SDS011;54465;51.230;22.504;2024-02-21T23:12:05;11.40;;;6.03;;
32946;SDS011;54465;51.230;22.504;2024-02-21T23:17:06;10.82;;;6.60;;
32946;SDS011;54465;51.230;22.504;2024-02-21T23:22:07;9.50;;;5.50;;
32946;SDS011;54465;51.230;22.504;2024-02-21T23:27:08;8.68;;;5.07;;
32946;SDS011;54465;51.230;22.504;2024-02-21T23:32:08;10.45;;;6.03;;
32946;SDS011;54465;51.230;22.504;2024-02-21T23:37:09;9.55;;;4.75;;
32946;SDS011;54465;51.230;22.504;2024-02-21T23:42:11;10.63;;;5.32;;
32946;SDS011;54465;51.230;22.504;2024-02-21T23:47:11;13.77;;;5.90;;
32946;SDS011;54465;51.230;22.504;2024-02-21T23:52:12;10.75;;;5.45;;
32946;SDS011;54465;51.230;22.504;2024-02-21T23:57:14;11.05;;;5.30;;
